sensor_id;sensor_type;location;lat;lon;timestamp;P1;durP1;ratioP1;P2;durP2;ratioP2
74900;SDS011;63461;51.416;6.758;2022-10-16T00:02:28;8.77;;;4.10;;
74900;SDS011;63461;51.416;6.758;2022-10-16T00:05:12;10.67;;;4.33;;
74900;SDS011;63461;51.416;6.758;2022-10-16T00:07:57;10.43;;;4.03;;
74900;SDS011;63461;51.416;6.758;2022-10-16T00:10:41;10.30;;;3.93;;
74900;SDS011;63461;51.416;6.758;2022-10-16T00:13:26;9.93;;;4.03;;
74900;SDS011;63461;51.416;6.758;2022-10-16T00:16:12;8.63;;;4.20;;
74900;SDS011;63461;51.416;6.758;2022-10-16T00:18:57;10.13;;;4.10;;
74900;SDS011;63461;51.416;6.758;2022-10-16T00:21:41;15.13;;;4.70;;
74900;SDS011;63461;51.416;6.758;2022-10-16T00:24:27;8.70;;;4.30;;
74900;SDS011;63461;51.416;6.758;2022-10-16T00:27:12;11.13;;;4.47;;
74900;SDS011;63461;51.416;6.758;2022-10-16T00:29:56;13.73;;;5.07;;
74900;SDS011;63461;51.416;6.758;2022-10-16T00:32:40;9.30;;;4.70;;
74900;SDS011;63461;51.416;6.758;2022-10-16T00:35:25;16.93;;;5.77;;
74900;SDS011;63461;51.416;6.758;2022-10-16T00:38:09;9.33;;;4.43;;
74900;SDS011;63461;51.416;6.758;2022-10-16T00:40:54;17.03;;;4.67;;
74900;SDS011;63461;51.416;6.758;2022-10-16T00:46:41;12.67;;;4.83;;
74900;SDS011;63461;51.416;6.758;2022-10-16T00:49:25;10.50;;;4.30;;
74900;SDS011;63461;51.416;6.758;2022-10-16T00:52:10;9.57;;;4.23;;
74900;SDS011;63461;51.416;6.758;2022-10-16T00:54:54;11.03;;;4.33;;
74900;SDS011;63461;51.416;6.758;2022-10-16T00:57:40;11.50;;;4.23;;
74900;SDS011;63461;51.416;6.758;2022-10-16T01:00:26;8.67;;;4.00;;
74900;SDS011;63461;51.416;6.758;2022-10-16T01:06:41;9.00;;;4.03;;
74900;SDS011;63461;51.416;6.758;2022-10-16T01:15:26;12.83;;;4.60;;
74900;SDS011;63461;51.416;6.758;2022-10-16T01:18:53;9.87;;;4.17;;
74900;SDS011;63461;51.416;6.758;2022-10-16T01:21:42;12.70;;;4.93;;
74900;SDS011;63461;51.416;6.758;2022-10-16T01:24:40;11.30;;;5.03;;
74900;SDS011;63461;51.416;6.758;2022-10-16T01:27:28;10.53;;;5.23;;
74900;SDS011;63461;51.416;6.758;2022-10-16T01:30:17;16.83;;;6.00;;
74900;SDS011;63461;51.416;6.758;2022-10-16T01:33:11;15.27;;;6.90;;
74900;SDS011;63461;51.416;6.758;2022-10-16T01:36:07;12.07;;;6.73;;
74900;SDS011;63461;51.416;6.758;2022-10-16T01:39:04;17.20;;;7.83;;
74900;SDS011;63461;51.416;6.758;2022-10-16T01:41:54;15.70;;;7.43;;
74900;SDS011;63461;51.416;6.758;2022-10-16T01:44:44;16.00;;;6.97;;
74900;SDS011;63461;51.416;6.758;2022-10-16T01:47:31;13.60;;;7.17;;
74900;SDS011;63461;51.416;6.758;2022-10-16T01:50:16;13.37;;;7.30;;
74900;SDS011;63461;51.416;6.758;2022-10-16T01:53:03;18.53;;;8.70;;
74900;SDS011;63461;51.416;6.758;2022-10-16T01:55:48;19.83;;;9.77;;
74900;SDS011;63461;51.416;6.758;2022-10-16T01:58:36;18.47;;;10.03;;
74900;SDS011;63461;51.416;6.758;2022-10-16T02:01:26;26.37;;;11.93;;
74900;SDS011;63461;51.416;6.758;2022-10-16T02:04:26;23.33;;;12.03;;
74900;SDS011;63461;51.416;6.758;2022-10-16T02:07:14;23.57;;;11.57;;
74900;SDS011;63461;51.416;6.758;2022-10-16T02:10:00;24.40;;;12.90;;
74900;SDS011;63461;51.416;6.758;2022-10-16T02:12:46;23.43;;;11.23;;
74900;SDS011;63461;51.416;6.758;2022-10-16T02:15:34;17.83;;;8.93;;
74900;SDS011;63461;51.416;6.758;2022-10-16T02:18:18;23.43;;;8.80;;
74900;SDS011;63461;51.416;6.758;2022-10-16T02:21:07;13.87;;;7.13;;
74900;SDS011;63461;51.416;6.758;2022-10-16T02:24:03;13.63;;;5.20;;
74900;SDS011;63461;51.416;6.758;2022-10-16T02:26:51;11.80;;;4.23;;
74900;SDS011;63461;51.416;6.758;2022-10-16T02:29:43;7.03;;;3.97;;
74900;SDS011;63461;51.416;6.758;2022-10-16T02:32:34;6.13;;;3.40;;
74900;SDS011;63461;51.416;6.758;2022-10-16T02:35:21;10.07;;;3.70;;
74900;SDS011;63461;51.416;6.758;2022-10-16T02:38:07;9.47;;;3.03;;
74900;SDS011;63461;51.416;6.758;2022-10-16T02:40:52;9.17;;;2.83;;
74900;SDS011;63461;51.416;6.758;2022-10-16T02:43:38;4.93;;;2.70;;
74900;SDS011;63461;51.416;6.758;2022-10-16T02:46:22;6.67;;;2.50;;
74900;SDS011;63461;51.416;6.758;2022-10-16T02:49:06;5.00;;;2.43;;
74900;SDS011;63461;51.416;6.758;2022-10-16T02:51:51;7.67;;;2.57;;
74900;SDS011;63461;51.416;6.758;2022-10-16T02:54:35;6.13;;;2.43;;
74900;SDS011;63461;51.416;6.758;2022-10-16T02:57:19;9.63;;;2.40;;
74900;SDS011;63461;51.416;6.758;2022-10-16T03:00:04;8.00;;;2.53;;
74900;SDS011;63461;51.416;6.758;2022-10-16T03:02:49;5.93;;;2.47;;
74900;SDS011;63461;51.416;6.758;2022-10-16T03:05:33;6.43;;;2.30;;
74900;SDS011;63461;51.416;6.758;2022-10-16T03:08:17;8.83;;;2.37;;
74900;SDS011;63461;51.416;6.758;2022-10-16T03:11:06;5.83;;;2.30;;
74900;SDS011;63461;51.416;6.758;2022-10-16T03:13:51;7.07;;;2.20;;
74900;SDS011;63461;51.416;6.758;2022-10-16T03:16:36;5.67;;;2.30;;
74900;SDS011;63461;51.416;6.758;2022-10-16T03:19:20;12.63;;;2.30;;
74900;SDS011;63461;51.416;6.758;2022-10-16T03:22:05;4.63;;;2.13;;
74900;SDS011;63461;51.416;6.758;2022-10-16T03:24:49;4.83;;;2.10;;
74900;SDS011;63461;51.416;6.758;2022-10-16T03:27:34;4.57;;;2.07;;
74900;SDS011;63461;51.416;6.758;2022-10-16T03:30:18;5.40;;;2.33;;
74900;SDS011;63461;51.416;6.758;2022-10-16T03:33:02;9.77;;;2.40;;
74900;SDS011;63461;51.416;6.758;2022-10-16T03:35:51;4.90;;;1.90;;
74900;SDS011;63461;51.416;6.758;2022-10-16T03:38:36;4.33;;;1.87;;
74900;SDS011;63461;51.416;6.758;2022-10-16T03:41:21;4.47;;;2.07;;
74900;SDS011;63461;51.416;6.758;2022-10-16T03:44:05;6.33;;;2.00;;
74900;SDS011;63461;51.416;6.758;2022-10-16T03:46:50;3.80;;;1.87;;
74900;SDS011;63461;51.416;6.758;2022-10-16T03:49:34;5.60;;;1.80;;
74900;SDS011;63461;51.416;6.758;2022-10-16T03:52:18;7.90;;;1.90;;
74900;SDS011;63461;51.416;6.758;2022-10-16T03:55:03;9.00;;;2.10;;
74900;SDS011;63461;51.416;6.758;2022-10-16T03:57:47;4.20;;;1.60;;
74900;SDS011;63461;51.416;6.758;2022-10-16T04:00:32;2.60;;;1.60;;
74900;SDS011;63461;51.416;6.758;2022-10-16T04:03:16;3.83;;;2.10;;
74900;SDS011;63461;51.416;6.758;2022-10-16T04:06:02;3.53;;;1.70;;
74900;SDS011;63461;51.416;6.758;2022-10-16T04:08:48;5.73;;;1.80;;
74900;SDS011;63461;51.416;6.758;2022-10-16T04:11:32;3.30;;;1.30;;
74900;SDS011;63461;51.416;6.758;2022-10-16T04:14:16;5.13;;;1.70;;
74900;SDS011;63461;51.416;6.758;2022-10-16T04:17:01;3.47;;;1.60;;
74900;SDS011;63461;51.416;6.758;2022-10-16T04:19:45;4.27;;;1.50;;
74900;SDS011;63461;51.416;6.758;2022-10-16T04:22:29;3.53;;;1.70;;
74900;SDS011;63461;51.416;6.758;2022-10-16T04:25:13;3.30;;;1.50;;
74900;SDS011;63461;51.416;6.758;2022-10-16T04:27:58;4.33;;;1.60;;
74900;SDS011;63461;51.416;6.758;2022-10-16T04:30:42;6.63;;;1.70;;
74900;SDS011;63461;51.416;6.758;2022-10-16T04:33:26;4.60;;;1.80;;
74900;SDS011;63461;51.416;6.758;2022-10-16T04:36:10;6.73;;;1.53;;
74900;SDS011;63461;51.416;6.758;2022-10-16T04:38:55;5.80;;;1.73;;
74900;SDS011;63461;51.416;6.758;2022-10-16T04:41:39;4.63;;;1.90;;
74900;SDS011;63461;51.416;6.758;2022-10-16T04:44:23;5.07;;;1.67;;
74900;SDS011;63461;51.416;6.758;2022-10-16T04:47:08;3.60;;;1.83;;
74900;SDS011;63461;51.416;6.758;2022-10-16T04:49:52;4.77;;;1.80;;
74900;SDS011;63461;51.416;6.758;2022-10-16T04:52:36;2.87;;;1.60;;
74900;SDS011;63461;51.416;6.758;2022-10-16T04:55:21;4.80;;;1.60;;
74900;SDS011;63461;51.416;6.758;2022-10-16T04:58:05;3.03;;;1.60;;
74900;SDS011;63461;51.416;6.758;2022-10-16T05:00:50;3.73;;;1.60;;
74900;SDS011;63461;51.416;6.758;2022-10-16T05:03:34;2.67;;;1.50;;
74900;SDS011;63461;51.416;6.758;2022-10-16T05:06:18;4.67;;;1.80;;
74900;SDS011;63461;51.416;6.758;2022-10-16T05:09:03;3.20;;;1.53;;
74900;SDS011;63461;51.416;6.758;2022-10-16T05:11:47;4.43;;;1.87;;
74900;SDS011;63461;51.416;6.758;2022-10-16T05:14:31;4.27;;;1.57;;
74900;SDS011;63461;51.416;6.758;2022-10-16T05:17:15;3.03;;;1.60;;
74900;SDS011;63461;51.416;6.758;2022-10-16T05:20:00;2.00;;;1.50;;
74900;SDS011;63461;51.416;6.758;2022-10-16T05:22:44;6.27;;;1.87;;
74900;SDS011;63461;51.416;6.758;2022-10-16T05:25:29;3.70;;;1.47;;
74900;SDS011;63461;51.416;6.758;2022-10-16T05:28:13;3.60;;;1.67;;
74900;SDS011;63461;51.416;6.758;2022-10-16T05:30:58;2.60;;;1.70;;
74900;SDS011;63461;51.416;6.758;2022-10-16T05:33:43;2.83;;;1.43;;
74900;SDS011;63461;51.416;6.758;2022-10-16T05:36:28;5.90;;;1.67;;
74900;SDS011;63461;51.416;6.758;2022-10-16T05:39:13;3.27;;;1.43;;
74900;SDS011;63461;51.416;6.758;2022-10-16T05:41:58;2.93;;;1.70;;
74900;SDS011;63461;51.416;6.758;2022-10-16T05:44:43;4.37;;;2.00;;
74900;SDS011;63461;51.416;6.758;2022-10-16T05:47:27;3.30;;;1.80;;
74900;SDS011;63461;51.416;6.758;2022-10-16T05:50:11;3.20;;;1.60;;
74900;SDS011;63461;51.416;6.758;2022-10-16T05:52:55;6.57;;;1.50;;
74900;SDS011;63461;51.416;6.758;2022-10-16T05:55:40;5.73;;;1.90;;
74900;SDS011;63461;51.416;6.758;2022-10-16T05:58:27;8.60;;;1.90;;
74900;SDS011;63461;51.416;6.758;2022-10-16T06:01:14;4.77;;;1.70;;
74900;SDS011;63461;51.416;6.758;2022-10-16T06:04:00;2.90;;;1.63;;
74900;SDS011;63461;51.416;6.758;2022-10-16T06:06:44;4.33;;;1.70;;
74900;SDS011;63461;51.416;6.758;2022-10-16T06:09:28;6.13;;;1.70;;
74900;SDS011;63461;51.416;6.758;2022-10-16T06:12:13;2.47;;;1.40;;
74900;SDS011;63461;51.416;6.758;2022-10-16T06:14:57;6.37;;;1.87;;
74900;SDS011;63461;51.416;6.758;2022-10-16T06:17:41;4.70;;;1.70;;
74900;SDS011;63461;51.416;6.758;2022-10-16T06:20:26;3.17;;;1.70;;
74900;SDS011;63461;51.416;6.758;2022-10-16T06:23:10;5.77;;;2.00;;
74900;SDS011;63461;51.416;6.758;2022-10-16T06:26:03;4.27;;;2.17;;
74900;SDS011;63461;51.416;6.758;2022-10-16T06:28:53;5.70;;;2.07;;
74900;SDS011;63461;51.416;6.758;2022-10-16T06:31:39;3.93;;;1.90;;
74900;SDS011;63461;51.416;6.758;2022-10-16T06:34:23;4.80;;;2.20;;
74900;SDS011;63461;51.416;6.758;2022-10-16T06:37:07;5.77;;;2.53;;
74900;SDS011;63461;51.416;6.758;2022-10-16T06:39:52;10.03;;;3.27;;
74900;SDS011;63461;51.416;6.758;2022-10-16T06:42:36;4.83;;;2.80;;
74900;SDS011;63461;51.416;6.758;2022-10-16T06:45:20;4.33;;;2.10;;
74900;SDS011;63461;51.416;6.758;2022-10-16T06:48:04;3.40;;;1.83;;
74900;SDS011;63461;51.416;6.758;2022-10-16T06:53:56;5.47;;;2.10;;
74900;SDS011;63461;51.416;6.758;2022-10-16T06:56:40;4.57;;;2.20;;
74900;SDS011;63461;51.416;6.758;2022-10-16T06:59:25;5.70;;;2.27;;
74900;SDS011;63461;51.416;6.758;2022-10-16T07:02:09;7.83;;;2.10;;
74900;SDS011;63461;51.416;6.758;2022-10-16T07:04:53;3.40;;;2.07;;
74900;SDS011;63461;51.416;6.758;2022-10-16T07:07:38;5.60;;;2.10;;
74900;SDS011;63461;51.416;6.758;2022-10-16T07:10:23;5.13;;;2.33;;
74900;SDS011;63461;51.416;6.758;2022-10-16T07:13:07;4.87;;;2.20;;
74900;SDS011;63461;51.416;6.758;2022-10-16T07:15:52;6.40;;;2.20;;
74900;SDS011;63461;51.416;6.758;2022-10-16T07:18:36;4.63;;;2.40;;
74900;SDS011;63461;51.416;6.758;2022-10-16T07:21:22;7.27;;;2.30;;
74900;SDS011;63461;51.416;6.758;2022-10-16T07:24:13;4.67;;;2.37;;
74900;SDS011;63461;51.416;6.758;2022-10-16T07:26:59;4.97;;;2.40;;
74900;SDS011;63461;51.416;6.758;2022-10-16T07:29:43;6.20;;;2.80;;
74900;SDS011;63461;51.416;6.758;2022-10-16T07:32:27;7.30;;;2.33;;
74900;SDS011;63461;51.416;6.758;2022-10-16T07:35:12;5.83;;;2.43;;
74900;SDS011;63461;51.416;6.758;2022-10-16T07:37:56;6.03;;;2.40;;
74900;SDS011;63461;51.416;6.758;2022-10-16T07:40:41;4.50;;;2.20;;
74900;SDS011;63461;51.416;6.758;2022-10-16T07:43:26;5.47;;;2.30;;
74900;SDS011;63461;51.416;6.758;2022-10-16T07:46:10;4.83;;;2.10;;
74900;SDS011;63461;51.416;6.758;2022-10-16T07:48:54;7.03;;;2.00;;
74900;SDS011;63461;51.416;6.758;2022-10-16T07:51:39;8.30;;;2.60;;
74900;SDS011;63461;51.416;6.758;2022-10-16T07:54:24;6.63;;;2.43;;
74900;SDS011;63461;51.416;6.758;2022-10-16T07:57:08;4.27;;;2.33;;
74900;SDS011;63461;51.416;6.758;2022-10-16T07:59:52;4.03;;;1.93;;
74900;SDS011;63461;51.416;6.758;2022-10-16T08:02:37;3.77;;;2.13;;
74900;SDS011;63461;51.416;6.758;2022-10-16T08:05:21;5.23;;;2.20;;
74900;SDS011;63461;51.416;6.758;2022-10-16T08:08:06;7.20;;;2.00;;
74900;SDS011;63461;51.416;6.758;2022-10-16T08:10:50;5.63;;;2.70;;
74900;SDS011;63461;51.416;6.758;2022-10-16T08:13:35;6.70;;;2.50;;
74900;SDS011;63461;51.416;6.758;2022-10-16T08:16:19;6.63;;;2.20;;
74900;SDS011;63461;51.416;6.758;2022-10-16T08:19:04;3.57;;;2.37;;
74900;SDS011;63461;51.416;6.758;2022-10-16T08:21:48;7.37;;;2.03;;
74900;SDS011;63461;51.416;6.758;2022-10-16T08:24:32;12.23;;;2.73;;
74900;SDS011;63461;51.416;6.758;2022-10-16T08:27:18;5.37;;;1.93;;
74900;SDS011;63461;51.416;6.758;2022-10-16T08:30:02;5.63;;;2.60;;
74900;SDS011;63461;51.416;6.758;2022-10-16T08:32:47;7.57;;;3.10;;
74900;SDS011;63461;51.416;6.758;2022-10-16T08:35:32;6.57;;;3.10;;
74900;SDS011;63461;51.416;6.758;2022-10-16T08:38:16;8.37;;;3.30;;
74900;SDS011;63461;51.416;6.758;2022-10-16T08:44:19;4.80;;;2.40;;
74900;SDS011;63461;51.416;6.758;2022-10-16T08:47:35;5.17;;;1.77;;
74900;SDS011;63461;51.416;6.758;2022-10-16T08:50:41;4.80;;;1.50;;
74900;SDS011;63461;51.416;6.758;2022-10-16T08:56:17;6.97;;;1.53;;
74900;SDS011;63461;51.416;6.758;2022-10-16T08:59:02;4.57;;;1.40;;
74900;SDS011;63461;51.416;6.758;2022-10-16T09:01:53;3.53;;;1.50;;
74900;SDS011;63461;51.416;6.758;2022-10-16T09:08:32;4.33;;;1.60;;
74900;SDS011;63461;51.416;6.758;2022-10-16T09:11:09;4.47;;;1.27;;
74900;SDS011;63461;51.416;6.758;2022-10-16T09:14:08;4.73;;;1.30;;
74900;SDS011;63461;51.416;6.758;2022-10-16T09:20:29;3.37;;;1.40;;
74900;SDS011;63461;51.416;6.758;2022-10-16T09:23:26;5.70;;;1.07;;
74900;SDS011;63461;51.416;6.758;2022-10-16T09:26:14;3.60;;;1.27;;
74900;SDS011;63461;51.416;6.758;2022-10-16T09:29:02;6.27;;;1.10;;
74900;SDS011;63461;51.416;6.758;2022-10-16T09:31:47;2.23;;;0.93;;
74900;SDS011;63461;51.416;6.758;2022-10-16T09:34:35;4.13;;;1.00;;
74900;SDS011;63461;51.416;6.758;2022-10-16T09:37:22;4.00;;;1.30;;
74900;SDS011;63461;51.416;6.758;2022-10-16T09:40:12;2.67;;;1.10;;
74900;SDS011;63461;51.416;6.758;2022-10-16T09:46:21;9.80;;;1.77;;
74900;SDS011;63461;51.416;6.758;2022-10-16T09:49:19;7.93;;;1.87;;
74900;SDS011;63461;51.416;6.758;2022-10-16T09:52:11;3.40;;;1.30;;
74900;SDS011;63461;51.416;6.758;2022-10-16T09:54:58;3.07;;;1.00;;
74900;SDS011;63461;51.416;6.758;2022-10-16T10:00:35;6.07;;;1.60;;
74900;SDS011;63461;51.416;6.758;2022-10-16T10:03:39;4.27;;;1.20;;
74900;SDS011;63461;51.416;6.758;2022-10-16T10:06:25;2.90;;;1.20;;
74900;SDS011;63461;51.416;6.758;2022-10-16T10:09:39;3.10;;;1.27;;
74900;SDS011;63461;51.416;6.758;2022-10-16T10:12:29;4.00;;;1.20;;
74900;SDS011;63461;51.416;6.758;2022-10-16T10:15:21;5.97;;;1.53;;
74900;SDS011;63461;51.416;6.758;2022-10-16T10:18:17;6.90;;;2.37;;
74900;SDS011;63461;51.416;6.758;2022-10-16T10:21:03;5.00;;;1.40;;
74900;SDS011;63461;51.416;6.758;2022-10-16T10:23:55;6.23;;;1.07;;
74900;SDS011;63461;51.416;6.758;2022-10-16T10:26:57;6.20;;;2.03;;
74900;SDS011;63461;51.416;6.758;2022-10-16T10:29:54;8.57;;;1.10;;
74900;SDS011;63461;51.416;6.758;2022-10-16T10:36:16;3.17;;;1.03;;
74900;SDS011;63461;51.416;6.758;2022-10-16T10:39:17;4.27;;;1.30;;
74900;SDS011;63461;51.416;6.758;2022-10-16T10:42:15;3.47;;;1.30;;
74900;SDS011;63461;51.416;6.758;2022-10-16T10:45:26;2.30;;;0.90;;
74900;SDS011;63461;51.416;6.758;2022-10-16T10:54:22;5.03;;;1.20;;
74900;SDS011;63461;51.416;6.758;2022-10-16T10:57:25;5.30;;;1.20;;
74900;SDS011;63461;51.416;6.758;2022-10-16T11:07:11;3.03;;;1.03;;
74900;SDS011;63461;51.416;6.758;2022-10-16T11:10:13;3.90;;;1.10;;
74900;SDS011;63461;51.416;6.758;2022-10-16T11:13:10;4.10;;;1.00;;
74900;SDS011;63461;51.416;6.758;2022-10-16T11:16:18;5.03;;;1.20;;
74900;SDS011;63461;51.416;6.758;2022-10-16T11:19:19;3.83;;;1.30;;
74900;SDS011;63461;51.416;6.758;2022-10-16T11:22:25;3.63;;;1.13;;
74900;SDS011;63461;51.416;6.758;2022-10-16T11:25:22;7.13;;;1.47;;
74900;SDS011;63461;51.416;6.758;2022-10-16T11:28:16;2.70;;;1.00;;
74900;SDS011;63461;51.416;6.758;2022-10-16T11:34:11;3.03;;;1.10;;
74900;SDS011;63461;51.416;6.758;2022-10-16T11:40:27;5.63;;;1.30;;
74900;SDS011;63461;51.416;6.758;2022-10-16T11:46:02;5.00;;;1.00;;
74900;SDS011;63461;51.416;6.758;2022-10-16T11:49:09;3.42;;;0.90;;
74900;SDS011;63461;51.416;6.758;2022-10-16T11:58:05;4.45;;;1.45;;
74900;SDS011;63461;51.416;6.758;2022-10-16T12:03:48;4.72;;;1.13;;
74900;SDS011;63461;51.416;6.758;2022-10-16T12:07:03;2.97;;;1.03;;
74900;SDS011;63461;51.416;6.758;2022-10-16T12:09:51;4.40;;;1.10;;
74900;SDS011;63461;51.416;6.758;2022-10-16T12:12:37;5.55;;;1.30;;
74900;SDS011;63461;51.416;6.758;2022-10-16T12:15:27;4.00;;;1.77;;
74900;SDS011;63461;51.416;6.758;2022-10-16T12:18:20;3.87;;;0.90;;
74900;SDS011;63461;51.416;6.758;2022-10-16T12:21:06;3.70;;;1.00;;
74900;SDS011;63461;51.416;6.758;2022-10-16T12:23:52;5.82;;;1.20;;
74900;SDS011;63461;51.416;6.758;2022-10-16T12:26:39;2.93;;;0.90;;
74900;SDS011;63461;51.416;6.758;2022-10-16T12:32:22;3.60;;;1.10;;
74900;SDS011;63461;51.416;6.758;2022-10-16T12:35:20;5.80;;;1.47;;
74900;SDS011;63461;51.416;6.758;2022-10-16T12:38:15;2.30;;;1.02;;
74900;SDS011;63461;51.416;6.758;2022-10-16T12:41:04;3.80;;;0.98;;
74900;SDS011;63461;51.416;6.758;2022-10-16T12:43:56;3.65;;;1.30;;
74900;SDS011;63461;51.416;6.758;2022-10-16T12:46:41;4.68;;;1.00;;
74900;SDS011;63461;51.416;6.758;2022-10-16T12:49:30;4.80;;;1.08;;
74900;SDS011;63461;51.416;6.758;2022-10-16T12:52:35;2.77;;;0.80;;
74900;SDS011;63461;51.416;6.758;2022-10-16T12:55:21;2.58;;;0.88;;
74900;SDS011;63461;51.416;6.758;2022-10-16T12:58:32;4.00;;;1.00;;
74900;SDS011;63461;51.416;6.758;2022-10-16T13:01:34;6.65;;;0.88;;
74900;SDS011;63461;51.416;6.758;2022-10-16T13:07:50;8.35;;;1.08;;
74900;SDS011;63461;51.416;6.758;2022-10-16T13:11:08;1.83;;;1.20;;
74900;SDS011;63461;51.416;6.758;2022-10-16T13:17:11;3.90;;;1.13;;
74900;SDS011;63461;51.416;6.758;2022-10-16T13:29:12;2.80;;;0.85;;
74900;SDS011;63461;51.416;6.758;2022-10-16T13:31:58;3.10;;;0.85;;
74900;SDS011;63461;51.416;6.758;2022-10-16T13:34:45;4.43;;;1.13;;
74900;SDS011;63461;51.416;6.758;2022-10-16T13:37:31;1.63;;;0.90;;
74900;SDS011;63461;51.416;6.758;2022-10-16T13:40:21;2.05;;;1.20;;
74900;SDS011;63461;51.416;6.758;2022-10-16T13:43:07;5.55;;;1.60;;
74900;SDS011;63461;51.416;6.758;2022-10-16T13:45:56;8.68;;;1.63;;
74900;SDS011;63461;51.416;6.758;2022-10-16T13:48:43;5.60;;;1.20;;
74900;SDS011;63461;51.416;6.758;2022-10-16T13:51:28;7.63;;;1.83;;
74900;SDS011;63461;51.416;6.758;2022-10-16T13:54:14;4.57;;;1.40;;
74900;SDS011;63461;51.416;6.758;2022-10-16T13:57:04;6.65;;;2.13;;
74900;SDS011;63461;51.416;6.758;2022-10-16T13:59:49;3.30;;;1.52;;
74900;SDS011;63461;51.416;6.758;2022-10-16T14:02:34;8.32;;;2.10;;
74900;SDS011;63461;51.416;6.758;2022-10-16T14:05:21;5.78;;;1.65;;
74900;SDS011;63461;51.416;6.758;2022-10-16T14:08:09;6.18;;;1.98;;
74900;SDS011;63461;51.416;6.758;2022-10-16T14:10:56;5.38;;;1.80;;
74900;SDS011;63461;51.416;6.758;2022-10-16T14:13:44;7.55;;;1.45;;
74900;SDS011;63461;51.416;6.758;2022-10-16T14:16:30;3.55;;;0.73;;
74900;SDS011;63461;51.416;6.758;2022-10-16T14:19:22;6.00;;;1.52;;
74900;SDS011;63461;51.416;6.758;2022-10-16T14:22:25;4.47;;;1.00;;
74900;SDS011;63461;51.416;6.758;2022-10-16T14:28:18;6.55;;;1.48;;
74900;SDS011;63461;51.416;6.758;2022-10-16T14:34:26;5.45;;;1.45;;
74900;SDS011;63461;51.416;6.758;2022-10-16T14:37:20;6.45;;;1.92;;
74900;SDS011;63461;51.416;6.758;2022-10-16T14:40:13;3.00;;;1.27;;
74900;SDS011;63461;51.416;6.758;2022-10-16T14:43:00;5.10;;;1.08;;
74900;SDS011;63461;51.416;6.758;2022-10-16T14:45:49;4.85;;;1.20;;
74900;SDS011;63461;51.416;6.758;2022-10-16T14:48:36;4.47;;;1.55;;
74900;SDS011;63461;51.416;6.758;2022-10-16T14:51:25;8.70;;;1.55;;
74900;SDS011;63461;51.416;6.758;2022-10-16T14:54:14;4.70;;;1.60;;
74900;SDS011;63461;51.416;6.758;2022-10-16T14:57:00;10.32;;;1.60;;
74900;SDS011;63461;51.416;6.758;2022-10-16T14:59:44;5.07;;;1.52;;
74900;SDS011;63461;51.416;6.758;2022-10-16T15:02:30;3.80;;;1.65;;
74900;SDS011;63461;51.416;6.758;2022-10-16T15:05:17;4.72;;;1.85;;
74900;SDS011;63461;51.416;6.758;2022-10-16T15:08:05;10.23;;;1.75;;
74900;SDS011;63461;51.416;6.758;2022-10-16T15:10:50;3.58;;;1.35;;
74900;SDS011;63461;51.416;6.758;2022-10-16T15:13:35;10.02;;;1.63;;
74900;SDS011;63461;51.416;6.758;2022-10-16T15:16:19;8.23;;;1.45;;
74900;SDS011;63461;51.416;6.758;2022-10-16T15:19:03;5.85;;;1.50;;
74900;SDS011;63461;51.416;6.758;2022-10-16T15:21:47;10.70;;;2.20;;
74900;SDS011;63461;51.416;6.758;2022-10-16T15:24:32;20.20;;;1.90;;
74900;SDS011;63461;51.416;6.758;2022-10-16T15:27:16;13.07;;;2.03;;
74900;SDS011;63461;51.416;6.758;2022-10-16T15:30:01;7.95;;;2.10;;
74900;SDS011;63461;51.416;6.758;2022-10-16T15:32:45;10.80;;;2.08;;
74900;SDS011;63461;51.416;6.758;2022-10-16T15:35:29;7.25;;;1.55;;
74900;SDS011;63461;51.416;6.758;2022-10-16T15:38:14;12.15;;;2.22;;
74900;SDS011;63461;51.416;6.758;2022-10-16T15:41:01;12.90;;;1.40;;
74900;SDS011;63461;51.416;6.758;2022-10-16T15:43:47;11.48;;;1.83;;
74900;SDS011;63461;51.416;6.758;2022-10-16T15:46:32;24.08;;;2.50;;
74900;SDS011;63461;51.416;6.758;2022-10-16T15:49:18;14.88;;;2.22;;
74900;SDS011;63461;51.416;6.758;2022-10-16T15:52:03;13.52;;;2.75;;
74900;SDS011;63461;51.416;6.758;2022-10-16T15:54:47;21.08;;;2.90;;
74900;SDS011;63461;51.416;6.758;2022-10-16T15:57:31;20.70;;;2.50;;
74900;SDS011;63461;51.416;6.758;2022-10-16T16:00:17;16.65;;;2.60;;
74900;SDS011;63461;51.416;6.758;2022-10-16T16:03:07;9.77;;;2.03;;
74900;SDS011;63461;51.416;6.758;2022-10-16T16:05:52;7.30;;;2.78;;
74900;SDS011;63461;51.416;6.758;2022-10-16T16:08:36;14.45;;;2.45;;
74900;SDS011;63461;51.416;6.758;2022-10-16T16:11:21;19.10;;;3.10;;
74900;SDS011;63461;51.416;6.758;2022-10-16T16:14:07;15.97;;;3.50;;
74900;SDS011;63461;51.416;6.758;2022-10-16T16:16:55;11.37;;;3.50;;
74900;SDS011;63461;51.416;6.758;2022-10-16T16:19:40;7.83;;;3.23;;
74900;SDS011;63461;51.416;6.758;2022-10-16T16:22:24;11.35;;;3.33;;
74900;SDS011;63461;51.416;6.758;2022-10-16T16:25:09;15.65;;;4.00;;
74900;SDS011;63461;51.416;6.758;2022-10-16T16:27:54;15.73;;;3.50;;
74900;SDS011;63461;51.416;6.758;2022-10-16T16:30:38;14.07;;;4.00;;
74900;SDS011;63461;51.416;6.758;2022-10-16T16:33:22;26.03;;;4.27;;
74900;SDS011;63461;51.416;6.758;2022-10-16T16:36:07;16.23;;;3.97;;
74900;SDS011;63461;51.416;6.758;2022-10-16T16:38:52;10.80;;;3.63;;
74900;SDS011;63461;51.416;6.758;2022-10-16T16:41:36;13.55;;;3.88;;
74900;SDS011;63461;51.416;6.758;2022-10-16T16:44:21;19.87;;;3.43;;
74900;SDS011;63461;51.416;6.758;2022-10-16T16:47:05;10.00;;;3.63;;
74900;SDS011;63461;51.416;6.758;2022-10-16T16:49:49;18.23;;;3.33;;
74900;SDS011;63461;51.416;6.758;2022-10-16T16:52:34;10.47;;;4.10;;
74900;SDS011;63461;51.416;6.758;2022-10-16T16:55:19;16.85;;;3.72;;
74900;SDS011;63461;51.416;6.758;2022-10-16T16:58:03;19.20;;;3.57;;
74900;SDS011;63461;51.416;6.758;2022-10-16T17:00:48;21.30;;;3.80;;
74900;SDS011;63461;51.416;6.758;2022-10-16T17:03:33;19.77;;;3.83;;
74900;SDS011;63461;51.416;6.758;2022-10-16T17:06:19;12.73;;;3.20;;
74900;SDS011;63461;51.416;6.758;2022-10-16T17:09:05;14.17;;;3.47;;
74900;SDS011;63461;51.416;6.758;2022-10-16T17:11:50;10.97;;;3.40;;
74900;SDS011;63461;51.416;6.758;2022-10-16T17:14:35;7.90;;;3.13;;
74900;SDS011;63461;51.416;6.758;2022-10-16T17:17:19;14.13;;;3.47;;
74900;SDS011;63461;51.416;6.758;2022-10-16T17:20:03;11.30;;;3.13;;
74900;SDS011;63461;51.416;6.758;2022-10-16T17:22:48;7.93;;;2.70;;
74900;SDS011;63461;51.416;6.758;2022-10-16T17:25:35;7.20;;;3.20;;
74900;SDS011;63461;51.416;6.758;2022-10-16T17:28:19;9.10;;;2.65;;
74900;SDS011;63461;51.416;6.758;2022-10-16T17:31:11;8.40;;;2.57;;
74900;SDS011;63461;51.416;6.758;2022-10-16T17:33:57;7.33;;;2.37;;
74900;SDS011;63461;51.416;6.758;2022-10-16T17:36:42;5.90;;;2.47;;
74900;SDS011;63461;51.416;6.758;2022-10-16T17:39:29;5.73;;;2.60;;
74900;SDS011;63461;51.416;6.758;2022-10-16T17:42:13;7.32;;;2.80;;
74900;SDS011;63461;51.416;6.758;2022-10-16T17:44:58;6.90;;;2.50;;
74900;SDS011;63461;51.416;6.758;2022-10-16T17:47:42;8.00;;;2.90;;
74900;SDS011;63461;51.416;6.758;2022-10-16T17:50:26;9.43;;;2.78;;
74900;SDS011;63461;51.416;6.758;2022-10-16T17:53:11;8.97;;;3.00;;
74900;SDS011;63461;51.416;6.758;2022-10-16T17:55:55;9.93;;;2.93;;
74900;SDS011;63461;51.416;6.758;2022-10-16T17:58:41;10.88;;;2.97;;
74900;SDS011;63461;51.416;6.758;2022-10-16T18:01:27;9.02;;;2.70;;
74900;SDS011;63461;51.416;6.758;2022-10-16T18:04:14;12.48;;;2.97;;
74900;SDS011;63461;51.416;6.758;2022-10-16T18:06:59;8.20;;;3.03;;
74900;SDS011;63461;51.416;6.758;2022-10-16T18:09:44;9.37;;;3.30;;
74900;SDS011;63461;51.416;6.758;2022-10-16T18:12:28;8.70;;;2.85;;
74900;SDS011;63461;51.416;6.758;2022-10-16T18:15:12;9.07;;;3.07;;
74900;SDS011;63461;51.416;6.758;2022-10-16T18:17:57;10.23;;;3.27;;
74900;SDS011;63461;51.416;6.758;2022-10-16T18:20:41;13.57;;;2.90;;